createdAt,value
2023-04-11T00:02:13.972Z,100.00
2023-04-11T00:04:41.144Z,100.00
2023-04-11T00:07:09.540Z,100.00
2023-04-11T00:09:36.750Z,100.00
2023-04-11T00:12:04.000Z,100.00
2023-04-11T00:14:34.709Z,100.00
2023-04-11T00:17:01.897Z,100.00
2023-04-11T00:19:28.945Z,100.00
2023-04-11T00:21:59.269Z,100.00
2023-04-11T00:24:27.082Z,100.00
2023-04-11T00:26:54.608Z,100.00
2023-04-11T00:29:21.974Z,100.00
2023-04-11T00:31:49.113Z,100.00
2023-04-11T00:34:16.218Z,100.00
2023-04-11T00:36:43.315Z,100.00
2023-04-11T00:39:10.763Z,100.00
2023-04-11T00:41:37.722Z,100.00
2023-04-11T00:44:04.852Z,100.00
2023-04-11T00:46:32.092Z,100.00
2023-04-11T00:48:59.610Z,100.00
2023-04-11T00:51:27.353Z,100.00
2023-04-11T00:53:54.805Z,100.00
2023-04-11T00:56:22.454Z,100.00
2023-04-11T00:58:49.635Z,100.00
2023-04-11T01:01:16.940Z,100.00
2023-04-11T01:03:45.634Z,100.00
2023-04-11T01:06:14.732Z,100.00
2023-04-11T01:08:43.617Z,100.00
2023-04-11T01:11:13.018Z,100.00
2023-04-11T01:13:40.505Z,100.00
2023-04-11T01:16:08.464Z,100.00
2023-04-11T01:18:35.917Z,100.00
2023-04-11T01:21:03.157Z,100.00
2023-04-11T01:23:30.217Z,100.00
2023-04-11T01:25:57.305Z,100.00
2023-04-11T02:30:27.275Z,100.00
2023-04-11T02:32:54.429Z,100.00
2023-04-11T02:35:21.346Z,100.00
2023-04-11T02:37:48.265Z,100.00
2023-04-11T02:40:15.265Z,100.00
2023-04-11T02:42:43.517Z,100.00
2023-04-11T02:45:12.028Z,100.00
2023-04-11T02:47:40.206Z,100.00
2023-04-11T05:08:03.691Z,100.00
2023-04-11T05:10:33.017Z,100.00
2023-04-11T05:13:00.158Z,100.00
2023-04-11T05:15:27.123Z,100.00
2023-04-11T05:17:54.779Z,100.00
2023-04-11T05:20:22.168Z,100.00
2023-04-11T05:22:51.092Z,100.00
2023-04-11T05:25:18.702Z,100.00
2023-04-11T05:27:46.365Z,100.00
2023-04-11T05:30:13.996Z,100.00
2023-04-11T05:32:43.199Z,100.00
2023-04-11T05:35:11.017Z,100.00
2023-04-11T05:37:51.196Z,100.00
2023-04-11T05:40:18.839Z,100.00
2023-04-11T05:42:46.311Z,100.00
2023-04-11T05:45:13.317Z,100.00
2023-04-11T05:47:40.323Z,100.00
2023-04-11T05:50:08.771Z,100.00
2023-04-11T05:52:36.327Z,100.00
2023-04-11T05:55:04.920Z,100.00
2023-04-11T05:57:33.097Z,100.00
2023-04-11T06:00:02.278Z,100.00
2023-04-11T06:02:40.332Z,100.00
2023-04-11T06:05:08.138Z,100.00
2023-04-11T06:07:36.134Z,99.56
2023-04-11T06:10:03.431Z,99.41
2023-04-11T06:12:30.517Z,98.56
2023-04-11T06:14:57.647Z,97.55
2023-04-11T06:17:24.674Z,97.70
2023-04-11T06:19:52.195Z,98.40
2023-04-11T06:22:19.242Z,96.69
2023-04-11T06:24:46.216Z,96.38
2023-04-11T06:27:13.558Z,95.96
2023-04-11T06:29:43.883Z,95.56
2023-04-11T06:32:12.637Z,94.80
2023-04-11T06:34:40.062Z,94.12
2023-04-11T06:37:07.553Z,93.65
2023-04-11T06:39:36.278Z,93.35
2023-04-11T06:42:03.718Z,92.39
2023-04-11T06:44:33.933Z,90.54
2023-04-11T06:47:01.186Z,90.03
2023-04-11T06:49:31.549Z,91.22
2023-04-11T06:51:59.838Z,91.70
2023-04-11T06:54:26.775Z,89.09
2023-04-11T06:56:53.827Z,89.37
2023-04-11T06:59:22.155Z,88.71
2023-04-11T07:01:50.152Z,88.13
2023-04-11T07:04:17.576Z,87.59
2023-04-11T07:06:44.922Z,87.84
2023-04-11T07:09:14.982Z,88.64
2023-04-11T07:11:41.992Z,88.17
2023-04-11T07:14:08.944Z,89.34
2023-04-11T07:16:36.338Z,88.70
2023-04-11T07:19:03.761Z,88.95
2023-04-11T07:21:32.570Z,88.17
2023-04-11T07:24:00.990Z,87.38
2023-04-11T07:26:32.736Z,85.65
2023-04-11T07:28:59.882Z,85.34
2023-04-11T07:31:27.662Z,85.84
2023-04-11T07:33:54.964Z,85.98
2023-04-11T07:36:22.207Z,85.28
2023-04-11T07:38:49.130Z,85.23
2023-04-11T07:41:16.610Z,84.88
2023-04-11T07:43:43.663Z,84.71
2023-04-11T07:46:12.622Z,84.82
2023-04-11T07:48:39.790Z,84.04
2023-04-11T07:51:08.690Z,84.28
2023-04-11T07:53:36.063Z,84.17
2023-04-11T07:56:03.132Z,83.35
2023-04-11T07:58:30.732Z,83.04
2023-04-11T08:00:59.234Z,81.63
2023-04-11T08:03:27.293Z,80.45
2023-04-11T08:05:54.472Z,77.73
2023-04-11T08:08:22.593Z,77.93
2023-04-11T08:10:51.924Z,78.76
2023-04-11T08:13:19.165Z,78.25
2023-04-11T08:15:47.850Z,77.99
2023-04-11T08:18:16.704Z,77.80
2023-04-11T08:20:43.728Z,77.46
2023-04-11T08:23:11.560Z,76.87
2023-04-11T08:25:40.558Z,79.65
2023-04-11T08:28:10.545Z,74.95
2023-04-11T08:30:37.718Z,73.52
2023-04-11T08:33:04.976Z,73.02
2023-04-11T08:35:31.962Z,72.95
2023-04-11T08:37:58.886Z,72.65
2023-04-11T08:40:27.086Z,73.35
2023-04-11T08:43:03.056Z,72.90
2023-04-11T08:45:30.029Z,72.55
2023-04-11T08:47:57.158Z,71.16
2023-04-11T08:50:24.274Z,71.36
2023-04-11T08:52:53.294Z,69.59
2023-04-11T08:55:21.586Z,68.95
2023-04-11T08:57:48.612Z,68.52
2023-04-11T09:00:19.404Z,68.63
2023-04-11T09:03:02.244Z,68.89
2023-04-11T09:05:40.005Z,67.12
2023-04-11T09:08:12.529Z,65.38
2023-04-11T09:10:41.194Z,65.55
2023-04-11T09:13:27.951Z,61.04
2023-04-11T09:16:22.459Z,60.69
2023-04-11T09:18:49.573Z,60.91
2023-04-11T09:21:17.462Z,60.08
2023-04-11T09:23:44.505Z,58.36
2023-04-11T09:26:12.918Z,59.21
2023-04-11T09:28:45.084Z,59.66
2023-04-11T09:31:13.666Z,59.81
2023-04-11T09:33:52.859Z,60.58
2023-04-11T09:36:22.707Z,61.58
2023-04-11T09:38:49.930Z,62.33
2023-04-11T09:41:37.956Z,63.78
2023-04-11T09:44:05.486Z,62.95
2023-04-11T09:46:32.766Z,62.13
2023-04-11T09:49:02.158Z,61.07
2023-04-11T09:51:36.475Z,60.81
2023-04-11T09:54:05.426Z,60.92
2023-04-11T09:56:35.084Z,61.16
2023-04-11T09:59:02.788Z,62.26
2023-04-11T10:01:30.888Z,61.23
2023-04-11T10:04:02.110Z,58.95
2023-04-11T10:06:48.291Z,58.61
2023-04-11T10:09:15.938Z,57.01
2023-04-11T10:11:44.399Z,55.81
2023-04-11T10:14:39.783Z,56.16
2023-04-11T10:17:20.604Z,55.45
2023-04-11T10:19:52.793Z,56.40
2023-04-11T10:22:54.410Z,56.44
2023-04-11T10:25:24.017Z,55.82
2023-04-11T10:28:13.325Z,54.62
2023-04-11T10:30:40.350Z,52.99
2023-04-11T10:33:20.607Z,52.58
2023-04-11T10:36:17.298Z,49.07
2023-04-11T10:38:50.067Z,47.83
2023-04-11T10:41:17.432Z,46.21
2023-04-11T10:43:46.177Z,45.44
2023-04-11T10:46:25.999Z,45.04
2023-04-11T10:49:03.853Z,45.74
2023-04-11T10:51:33.254Z,47.57
2023-04-11T10:54:01.520Z,44.85
2023-04-11T10:56:47.407Z,44.85
2023-04-11T10:59:32.850Z,43.44
2023-04-11T11:02:03.850Z,43.08
2023-04-11T11:04:35.822Z,43.33
2023-04-11T11:07:05.149Z,44.24
2023-04-11T11:09:32.435Z,44.89
2023-04-11T11:12:15.645Z,46.43
2023-04-11T11:14:44.883Z,45.80
2023-04-11T11:17:15.448Z,47.15
2023-04-11T11:19:47.197Z,48.03
2023-04-11T11:22:28.955Z,48.73
2023-04-11T11:25:07.957Z,49.20
2023-04-11T11:27:35.015Z,49.25
2023-04-11T11:30:12.123Z,49.79
2023-04-11T11:32:39.486Z,49.38
2023-04-11T11:35:13.671Z,47.39
2023-04-11T11:37:41.017Z,44.94
2023-04-11T11:40:13.233Z,44.56
2023-04-11T11:42:41.477Z,45.84
2023-04-11T11:45:19.547Z,44.91
2023-04-11T11:47:48.611Z,44.49
2023-04-11T11:50:33.671Z,43.84
2023-04-11T11:53:21.592Z,43.19
2023-04-11T11:55:48.872Z,42.38
2023-04-11T11:58:17.696Z,42.92
2023-04-11T12:00:48.975Z,42.00
2023-04-11T12:03:23.216Z,41.47
2023-04-11T12:05:55.383Z,40.94
2023-04-11T12:08:22.716Z,40.57
2023-04-11T12:10:51.100Z,40.34
2023-04-11T12:13:23.727Z,40.57
2023-04-11T12:15:53.141Z,41.06
2023-04-11T12:18:22.135Z,40.01
2023-04-11T12:20:50.022Z,39.75
2023-04-11T12:23:17.659Z,39.49
2023-04-11T12:25:44.778Z,39.97
2023-04-11T12:28:12.246Z,40.69
2023-04-11T12:30:40.124Z,41.98
2023-04-11T12:33:07.349Z,42.51
2023-04-11T12:35:34.753Z,43.02
2023-04-11T12:38:02.039Z,43.32
2023-04-11T12:40:30.045Z,42.83
2023-04-11T12:42:59.342Z,42.71
2023-04-11T12:45:26.465Z,41.13
2023-04-11T12:47:54.142Z,40.63
2023-04-11T12:50:24.383Z,39.98
2023-04-11T12:52:52.081Z,39.73
2023-04-11T12:55:19.279Z,39.41
2023-04-11T12:57:46.423Z,38.79
2023-04-11T13:00:14.188Z,38.92
2023-04-11T13:02:44.515Z,39.05
2023-04-11T13:05:15.953Z,39.60
2023-04-11T13:07:45.425Z,40.02
2023-04-11T13:10:14.301Z,40.62
2023-04-11T13:12:44.887Z,40.58
2023-04-11T13:15:13.651Z,40.99
2023-04-11T13:17:42.608Z,40.91
2023-04-11T13:20:11.456Z,39.15
2023-04-11T13:22:42.955Z,39.64
2023-04-11T13:25:11.324Z,39.86
2023-04-11T13:27:40.395Z,39.98
2023-04-11T13:30:09.030Z,40.68
2023-04-11T13:32:36.438Z,40.56
2023-04-11T13:35:04.508Z,41.14
2023-04-11T13:37:31.484Z,41.38
2023-04-11T13:39:58.448Z,41.78
2023-04-11T13:42:25.762Z,42.15
2023-04-11T13:44:52.745Z,42.22
2023-04-11T13:47:19.826Z,42.67
2023-04-11T13:49:47.288Z,42.90
2023-04-11T13:52:15.914Z,43.13
2023-04-11T13:54:45.831Z,43.17
2023-04-11T13:57:13.379Z,42.47
2023-04-11T13:59:41.678Z,42.58
2023-04-11T14:02:08.776Z,42.54
2023-04-11T14:04:35.848Z,43.09
2023-04-11T14:07:02.902Z,43.65
2023-04-11T14:09:29.890Z,43.83
2023-04-11T14:11:57.276Z,44.03
2023-04-11T14:14:24.422Z,44.31
2023-04-11T14:16:51.862Z,44.72
2023-04-11T14:19:18.869Z,44.80
2023-04-11T14:21:45.954Z,44.95
2023-04-11T14:24:13.125Z,45.14
2023-04-11T14:26:40.082Z,45.19
2023-04-11T14:29:10.565Z,45.56
2023-04-11T14:31:38.945Z,45.60
2023-04-11T14:34:06.168Z,45.09
2023-04-11T14:36:33.145Z,45.59
2023-04-11T14:39:03.188Z,46.22
2023-04-11T14:41:30.177Z,46.24
2023-04-11T14:43:57.605Z,46.49
2023-04-11T14:46:26.447Z,46.20
2023-04-11T14:48:53.432Z,45.87
2023-04-11T14:51:20.455Z,46.27
2023-04-11T14:53:54.734Z,46.08
2023-04-11T14:56:25.808Z,45.58
2023-04-11T14:58:53.929Z,45.63
2023-04-11T15:01:21.553Z,45.40
2023-04-11T15:03:49.221Z,44.90
2023-04-11T15:06:16.501Z,45.24
2023-04-11T15:08:43.710Z,45.86
2023-04-11T15:11:10.981Z,46.43
2023-04-11T15:13:37.951Z,46.80
2023-04-11T15:16:06.952Z,46.52
2023-04-11T15:18:34.175Z,46.88
2023-04-11T15:21:03.485Z,47.64
2023-04-11T15:23:30.757Z,48.11
2023-04-11T15:26:03.138Z,48.33
2023-04-11T15:28:36.077Z,48.65
2023-04-11T15:31:06.710Z,48.86
2023-04-11T15:33:34.270Z,49.04
2023-04-11T15:36:03.459Z,48.08
2023-04-11T15:38:30.871Z,48.72
2023-04-11T15:41:00.351Z,48.41
2023-04-11T15:43:27.818Z,48.20
2023-04-11T15:45:55.145Z,48.08
2023-04-11T15:48:22.213Z,48.27
2023-04-11T15:50:49.379Z,48.89
2023-04-11T15:53:16.538Z,49.38
2023-04-11T15:55:44.392Z,49.46
2023-04-11T15:58:11.715Z,49.51
2023-04-11T16:00:40.383Z,50.24
2023-04-11T16:03:08.845Z,50.55
2023-04-11T16:05:40.444Z,50.83
2023-04-11T16:08:08.090Z,51.57
2023-04-11T16:10:35.384Z,51.34
2023-04-11T16:13:02.738Z,51.27
2023-04-11T16:15:29.935Z,51.81
2023-04-11T16:17:56.986Z,52.23
2023-04-11T16:20:23.962Z,52.02
2023-04-11T16:22:51.001Z,51.74
2023-04-11T16:25:21.531Z,51.78
2023-04-11T16:27:49.200Z,52.04
2023-04-11T16:30:16.843Z,52.07
2023-04-11T16:32:44.474Z,52.98
2023-04-11T16:35:11.698Z,53.21
2023-04-11T16:37:38.840Z,53.36
2023-04-11T16:40:11.696Z,53.85
2023-04-11T16:42:39.985Z,54.22
2023-04-11T16:45:08.265Z,54.71
2023-04-11T16:47:35.362Z,55.14
2023-04-11T16:50:02.495Z,55.33
2023-04-11T16:52:29.800Z,55.59
2023-04-11T16:54:56.763Z,55.86
2023-04-11T16:57:25.221Z,55.88
2023-04-11T16:59:53.487Z,56.11
2023-04-11T17:02:23.186Z,56.40
2023-04-11T17:04:50.275Z,56.48
2023-04-11T17:07:18.745Z,56.75
2023-04-11T17:09:49.536Z,56.83
2023-04-11T17:12:16.635Z,57.17
2023-04-11T17:14:44.477Z,57.02
2023-04-11T17:17:11.558Z,57.16
2023-04-11T17:19:40.141Z,57.62
2023-04-11T17:22:07.432Z,57.82
2023-04-11T17:24:34.640Z,58.20
2023-04-11T17:27:02.022Z,58.31
2023-04-11T17:29:29.319Z,59.08
2023-04-11T17:31:56.987Z,59.28
2023-04-11T17:34:27.771Z,59.79
2023-04-11T17:36:54.996Z,59.82
2023-04-11T17:39:22.263Z,60.35
2023-04-11T17:41:49.304Z,60.72
2023-04-11T17:44:16.509Z,61.16
2023-04-11T17:46:44.940Z,61.58
2023-04-11T17:49:11.949Z,62.08
2023-04-11T17:51:45.876Z,62.82
2023-04-11T17:54:16.984Z,63.54
2023-04-11T17:56:45.677Z,63.83
2023-04-11T17:59:14.527Z,64.45
2023-04-11T18:01:42.550Z,64.75
2023-04-11T18:04:09.980Z,64.83
2023-04-11T18:06:36.972Z,65.41
2023-04-11T18:09:05.552Z,65.58
2023-04-11T18:11:32.893Z,65.38
2023-04-11T18:13:59.987Z,65.51
2023-04-11T18:16:30.767Z,65.28
2023-04-11T18:18:57.939Z,65.38
2023-04-11T18:21:25.168Z,65.54
2023-04-11T18:23:56.297Z,65.53
2023-04-11T18:26:23.736Z,65.88
2023-04-11T18:28:50.774Z,65.87
2023-04-11T18:31:18.390Z,66.27
2023-04-11T18:33:59.776Z,66.64
2023-04-11T18:36:27.915Z,66.66
2023-04-11T18:38:58.352Z,66.84
2023-04-11T18:41:26.096Z,67.06
2023-04-11T18:43:53.039Z,67.08
2023-04-11T18:46:20.119Z,66.87
2023-04-11T18:48:47.104Z,67.42
2023-04-11T18:51:14.021Z,67.40
2023-04-11T18:53:42.050Z,67.44
2023-04-11T18:56:09.468Z,67.36
2023-04-11T18:58:45.552Z,67.39
2023-04-11T19:01:17.097Z,67.57
2023-04-11T19:03:45.399Z,67.59
2023-04-11T19:06:13.346Z,67.76
2023-04-11T19:08:40.816Z,68.42
2023-04-11T19:11:07.953Z,68.32
2023-04-11T19:13:34.888Z,68.49
2023-04-11T19:16:02.181Z,68.53
2023-04-11T19:18:29.156Z,68.63
2023-04-11T19:20:56.133Z,69.05
2023-04-11T19:23:23.177Z,69.26
2023-04-11T19:25:50.849Z,69.38
2023-04-11T19:28:18.030Z,70.14
2023-04-11T19:30:45.077Z,70.57
2023-04-11T19:33:12.102Z,70.86
2023-04-11T19:35:40.896Z,70.92
2023-04-11T19:38:09.492Z,71.32
2023-04-11T19:40:36.474Z,71.52
2023-04-11T19:43:03.896Z,72.14
2023-04-11T19:45:32.293Z,72.46
2023-04-11T19:47:59.667Z,72.94
2023-04-11T19:50:26.613Z,73.38
2023-04-11T19:52:57.061Z,73.76
2023-04-11T19:55:24.835Z,73.93
2023-04-11T19:57:51.853Z,74.25
2023-04-11T20:00:19.641Z,74.71
2023-04-11T20:02:51.721Z,74.62
2023-04-11T20:05:20.356Z,74.90
2023-04-11T20:07:48.317Z,75.37
2023-04-11T20:10:16.557Z,75.39
2023-04-11T20:12:43.549Z,75.68
2023-04-11T20:15:11.268Z,75.72
2023-04-11T20:17:38.392Z,75.80
2023-04-11T20:20:09.094Z,75.73
2023-04-11T20:22:38.568Z,75.80
2023-04-11T20:25:06.802Z,76.19
2023-04-11T20:27:34.147Z,76.37
2023-04-11T20:30:02.116Z,76.49
2023-04-11T20:32:29.102Z,77.14
2023-04-11T20:34:56.604Z,77.17
2023-04-11T20:37:23.709Z,77.33
2023-04-11T20:39:51.820Z,77.70
2023-04-11T20:42:20.701Z,77.65
2023-04-11T20:44:48.118Z,77.46
2023-04-11T20:47:15.271Z,77.74
2023-04-11T20:49:45.977Z,77.68
2023-04-11T20:52:12.998Z,77.99
2023-04-11T20:54:41.252Z,78.06
2023-04-11T20:57:08.478Z,77.86
2023-04-11T20:59:37.210Z,77.98
2023-04-11T21:02:04.300Z,77.75
2023-04-11T21:04:31.581Z,77.45
2023-04-11T21:06:58.832Z,77.61
2023-04-11T21:09:25.824Z,77.92
2023-04-11T21:11:52.708Z,77.99
2023-04-11T21:14:19.604Z,77.88
2023-04-11T21:16:46.518Z,78.14
2023-04-11T21:19:14.020Z,78.27
2023-04-11T21:21:41.123Z,78.11
2023-04-11T21:24:08.910Z,78.32
2023-04-11T21:26:36.694Z,78.32
2023-04-11T21:29:03.593Z,78.21
2023-04-11T21:31:30.791Z,78.43
2023-04-11T21:33:57.863Z,78.58
2023-04-11T21:36:24.996Z,78.67
2023-04-11T21:38:52.224Z,79.01
2023-04-11T21:41:19.333Z,79.47
2023-04-11T21:43:46.281Z,79.41
2023-04-11T21:46:13.276Z,79.35
2023-04-11T21:48:42.110Z,79.53
2023-04-11T21:51:09.080Z,79.70
2023-04-11T21:53:36.196Z,80.27
2023-04-11T21:56:03.215Z,80.28
2023-04-11T21:58:30.248Z,80.47
2023-04-11T22:00:57.273Z,80.53
2023-04-11T22:03:24.793Z,80.50
2023-04-11T22:05:52.614Z,80.20
2023-04-11T22:08:20.431Z,80.19
2023-04-11T22:10:48.365Z,80.46
2023-04-11T22:13:17.301Z,80.58
2023-04-11T22:15:45.153Z,80.48
2023-04-11T22:18:12.815Z,80.69
2023-04-11T22:20:44.080Z,80.72
2023-04-11T22:23:13.250Z,80.80
2023-04-11T22:25:44.583Z,80.88
2023-04-11T22:28:22.526Z,81.01
2023-04-11T22:30:50.722Z,81.05
2023-04-11T22:33:17.653Z,81.04
2023-04-11T22:35:45.284Z,81.17
2023-04-11T22:38:12.239Z,81.05
2023-04-11T22:40:40.396Z,81.07
2023-04-11T22:43:07.409Z,81.24
2023-04-11T22:45:37.481Z,81.19
2023-04-11T22:48:06.279Z,81.62
2023-04-11T22:50:38.148Z,81.61
2023-04-11T22:53:05.666Z,81.91
2023-04-11T22:55:35.863Z,82.10
2023-04-11T22:58:03.493Z,82.17
2023-04-11T23:00:30.544Z,82.37
2023-04-11T23:02:59.978Z,82.41
2023-04-11T23:05:27.167Z,82.70
2023-04-11T23:07:54.197Z,82.68
2023-04-11T23:10:21.165Z,83.01
2023-04-11T23:12:49.667Z,82.80
2023-04-11T23:15:17.677Z,82.74
2023-04-11T23:17:45.154Z,82.62
2023-04-11T23:20:13.798Z,83.02
2023-04-11T23:22:42.718Z,83.18
2023-04-11T23:25:11.181Z,83.20
2023-04-11T23:27:39.161Z,83.05
2023-04-11T23:30:06.626Z,83.12
2023-04-11T23:32:34.240Z,83.24
2023-04-11T23:35:01.795Z,83.30
2023-04-11T23:37:28.738Z,83.28
2023-04-11T23:39:55.723Z,83.51
2023-04-11T23:42:22.870Z,83.57
2023-04-11T23:44:49.808Z,83.55
2023-04-11T23:47:16.750Z,83.58
2023-04-11T23:49:44.623Z,83.55
2023-04-11T23:52:12.550Z,83.25
2023-04-11T23:54:39.545Z,83.09
2023-04-11T23:57:06.485Z,82.97
2023-04-11T23:59:33.462Z,82.95
